Flight Track Log - Related Links

Times and Time Zones

All times are in EDT time to prevent confusion due to time zone crossing. See the DAL1941 flight status page for this flight to view local times or setup timezone preferences in your user account.

Time Position Orientation Groundspeed Altitude Reporting Facility
EDT Latitude Longitude Course Direction KTS MPH feet Rate Location/Type
Thu 07:38:03 AM 42.9500 -71.4167 106° East 162 186 1,300  Level KA90
Thu 07:38:45 AM 42.9833 -71.4000 20° North 213 245 2,500 2,269 Climbing KA90
Thu 07:41:00 AM 42.6430 -71.9355 200° South  Level Estimated
Thu 07:41:16 AM 43.0714 -71.2322 54° Northeast 225 259 8,600  Level Boston Center
Thu 07:42:00 AM 42.5702 -72.0597 257° West  Level Estimated
Thu 07:42:17 AM 43.0619 -71.1272 97° East 260 299 10,700  Level Boston Center
Thu 07:43:00 AM 42.5381 -71.9071 106° East  Level FlightAware Approximate
Thu 07:43:15 AM 43.0792 -71.0017 79° East 311 358 11,900  Level Boston Center
Thu 07:44:15 AM 43.0069 -70.9097 137° Southeast 299 344 13,500 2,132 Climbing Boston Center
Thu 07:45:16 AM 42.8928 -70.9353 189° South 330 380 16,200 2,150 Climbing Boston Center
Thu 07:46:15 AM 42.7828 -70.9833 198° South 370 426 17,800 1,714 Climbing Boston Center
Thu 07:47:15 AM 42.6731 -71.0367 200° South 415 478 19,600 1,721 Climbing Boston Center
Thu 07:48:17 AM 42.5550 -71.0956 200° South 431 496 21,300 1,672 Climbing Boston Center
Thu 07:49:17 AM 42.4772 -71.2128 228° Southwest 419 482 23,000 1,563 Climbing Boston Center
Thu 07:50:16 AM 42.4456 -71.3794 256° West 421 484 24,400 1,700 Climbing Boston Center
Thu 07:51:17 AM 42.4136 -71.5458 255° West 436 502 26,400 1,736 Climbing Boston Center
Thu 07:52:17 AM 42.3750 -71.7039 252° West 447 514 27,900 1,412 Climbing Boston Center
Thu 07:53:16 AM 42.3428 -71.8642 255° West 447 514 29,200 1,271 Climbing Boston Center
Thu 07:54:15 AM 42.3081 -72.0247 254° West 447 514 30,400 1,300 Climbing Boston Center
Thu 07:55:16 AM 42.2500 -72.1681 241° Southwest 428 493 31,800 1,131 Climbing Boston Center
Thu 07:56:17 AM 42.1836 -72.2972 235° Southwest 428 493 32,700 807 Climbing Boston Center
Thu 07:57:15 AM 42.1192 -72.4317 237° Southwest 428 493 33,400 650 Climbing Boston Center
Thu 07:58:17 AM 42.0544 -72.5631 236° Southwest 428 493 34,000 295 Climbing Boston Center
Thu 07:59:17 AM 41.9917 -72.6886 236° Southwest 423 487 34,000  Level Boston Center
Thu 08:00:17 AM 41.9225 -72.8222 235° Southwest 428 493 34,000  Level Boston Center
Thu 08:01:15 AM 41.8533 -72.9531 235° Southwest 428 493 34,000  Level Boston Center
Thu 08:02:15 AM 41.7817 -73.0861 234° Southwest 436 502 34,000  Level Boston Center
Thu 08:03:16 AM 41.7119 -73.2158 234° Southwest 441 507 34,000  Level Boston Center
Thu 08:05:03 AM 41.5833 -73.4364 232° Southwest 426 490 34,000  Level New York Center
Thu 08:06:03 AM 41.5058 -73.5525 228° Southwest 426 490 34,000  Level New York Center
Thu 08:07:03 AM 41.4281 -73.6708 229° Southwest 426 490 34,000  Level New York Center
Thu 08:08:03 AM 41.3500 -73.7919 229° Southwest 432 497 34,000  Level New York Center
Thu 08:09:03 AM 41.2697 -73.9125 228° Southwest 432 497 34,000  Level New York Center
Thu 08:10:03 AM 41.1894 -74.0300 228° Southwest 432 497 34,000  Level New York Center
Thu 08:11:03 AM 41.1111 -74.1500 229° Southwest 432 497 34,000  Level New York Center
Thu 08:12:03 AM 41.0306 -74.2753 230° Southwest 444 511 34,000  Level New York Center
Thu 08:13:03 AM 40.9539 -74.4006 231° Southwest 444 511 34,000  Level New York Center
Thu 08:14:03 AM 40.8769 -74.5225 230° Southwest 444 511 34,000  Level New York Center
Thu 08:15:03 AM 40.8022 -74.6444 231° Southwest 439 505 34,000  Level New York Center
Thu 08:16:03 AM 40.7253 -74.7661 230° Southwest 439 505 34,000  Level New York Center
Thu 08:17:03 AM 40.6500 -74.8931 232° Southwest 439 505 34,000  Level New York Center
Thu 08:18:03 AM 40.5786 -75.0281 235° Southwest 445 512 34,000  Level New York Center
Thu 08:19:03 AM 40.5069 -75.1628 235° Southwest 451 519 34,000  Level New York Center
Thu 08:20:03 AM 40.4375 -75.2947 235° Southwest 451 519 34,000  Level New York Center
Thu 08:21:03 AM 40.3703 -75.4131 233° Southwest 451 519 34,000  Level New York Center
Thu 08:22:03 AM 40.3003 -75.5444 235° Southwest 456 525 34,000  Level New York Center
Thu 08:23:03 AM 40.2283 -75.6753 234° Southwest 456 525 34,000  Level New York Center
Thu 08:24:03 AM 40.1561 -75.8061 234° Southwest 456 525 34,000  Level New York Center
Thu 08:25:03 AM 40.0858 -75.9339 234° Southwest 451 519 34,000  Level New York Center
Thu 08:26:03 AM 40.0136 -76.0614 234° Southwest 451 519 34,000  Level New York Center
Thu 08:27:03 AM 39.9431 -76.1889 234° Southwest 444 511 34,000  Level New York Center
Thu 08:28:03 AM 39.8683 -76.3183 233° Southwest 444 511 34,000  Level New York Center
Thu 08:29:03 AM 39.7978 -76.4453 234° Southwest 444 511 34,000  Level New York Center
Thu 08:29:40 AM 39.7453 -76.5361 233° Southwest 443 510 34,000  Level Washington Center
Thu 08:30:41 AM 39.6819 -76.6458 233° Southwest 438 504 34,000  Level Washington Center
Thu 08:31:40 AM 39.6100 -76.7714 233° Southwest 438 504 34,000  Level Washington Center
Thu 08:32:41 AM 39.5400 -76.8967 234° Southwest 438 504 34,000  Level Washington Center
Thu 08:33:39 AM 39.4614 -77.0136 229° Southwest 433 498 34,000  Level Washington Center
Thu 08:34:40 AM 39.3686 -77.1111 219° Southwest 427 491 34,000  Level Washington Center
Thu 08:35:41 AM 39.2756 -77.2056 218° Southwest 432 497 34,000  Level Washington Center
Thu 08:36:39 AM 39.1828 -77.3000 218° Southwest 437 503 34,000  Level Washington Center
Thu 08:37:40 AM 39.0978 -77.4103 225° Southwest 431 496 34,000  Level Washington Center
Thu 08:38:40 AM 39.0189 -77.5233 228° Southwest 431 496 34,000  Level Washington Center
Thu 08:39:39 AM 38.9292 -77.6542 229° Southwest 444 511 34,000  Level Washington Center
Thu 08:40:39 AM 38.8583 -77.7589 229° Southwest 444 511 34,000  Level Washington Center
Thu 08:41:40 AM 38.7683 -77.8922 229° Southwest 450 518 34,000  Level Washington Center
Thu 08:42:40 AM 38.6889 -78.0067 228° Southwest 445 512 34,000  Level Washington Center
Thu 08:43:41 AM 38.6075 -78.1208 228° Southwest 445 512 34,000  Level Washington Center
Thu 08:44:40 AM 38.5278 -78.2350 228° Southwest 445 512 34,000  Level Washington Center
Thu 08:45:41 AM 38.4461 -78.3514 228° Southwest 445 512 34,000  Level Washington Center
Thu 08:46:39 AM 38.3642 -78.4647 227° Southwest 440 506 34,000  Level Washington Center
Thu 08:47:39 AM 38.2864 -78.5783 229° Southwest 440 506 34,000  Level Washington Center
Thu 08:48:40 AM 38.2061 -78.6939 229° Southwest 435 501 34,000  Level Washington Center
Thu 08:49:40 AM 38.1239 -78.8067 227° Southwest 435 501 34,000  Level Washington Center
Thu 08:50:39 AM 38.0394 -78.9244 228° Southwest 440 506 34,000  Level Washington Center
Thu 08:51:39 AM 37.9656 -79.0264 227° Southwest 445 512 34,000  Level Washington Center
Thu 08:52:40 AM 37.8811 -79.1383 226° Southwest 445 512 34,000  Level Washington Center
Thu 08:53:40 AM 37.7983 -79.2528 228° Southwest 445 512 34,000  Level Washington Center
Thu 08:54:41 AM 37.7025 -79.3794 226° Southwest 451 519 34,000  Level Washington Center
Thu 08:55:39 AM 37.6283 -79.4858 229° Southwest 456 525 34,000  Level Washington Center
Thu 08:56:41 AM 37.5367 -79.6094 227° Southwest 451 519 34,000  Level Washington Center
Thu 08:57:41 AM 37.4600 -79.7128 227° Southwest 451 519 34,000  Level Washington Center
Thu 08:58:39 AM 37.3722 -79.8361 228° Southwest 457 526 34,000  Level Washington Center
Thu 08:59:40 AM 37.2800 -79.9639 228° Southwest 457 526 34,000  Level Washington Center
Thu 09:01:41 AM 37.1094 -80.1947 227° Southwest 431 496 34,000  Level Atlanta Center
Thu 09:02:41 AM 37.0336 -80.2972 227° Southwest 437 503 34,000  Level Atlanta Center
Thu 09:03:41 AM 36.9494 -80.4103 227° Southwest 442 509 34,000  Level Atlanta Center
Thu 09:04:41 AM 36.8631 -80.5233 226° Southwest 442 509 34,000  Level Atlanta Center
Thu 09:05:41 AM 36.7767 -80.6386 227° Southwest 447 514 34,000  Level Atlanta Center
Thu 09:06:41 AM 36.6861 -80.7589 227° Southwest 441 507 34,000  Level Atlanta Center
Thu 09:07:41 AM 36.6033 -80.8708 227° Southwest 441 507 34,000  Level Atlanta Center
Thu 09:08:41 AM 36.5167 -80.9828 226° Southwest 441 507 34,000  Level Atlanta Center
Thu 09:09:41 AM 36.4339 -81.0944 227° Southwest 441 507 34,000  Level Atlanta Center
Thu 09:10:41 AM 36.3467 -81.2058 226° Southwest 441 507 34,000  Level Atlanta Center
Thu 09:11:41 AM 36.2639 -81.3169 227° Southwest 441 507 34,000  Level Atlanta Center
Thu 09:12:41 AM 36.1786 -81.4331 228° Southwest 441 507 34,000  Level Atlanta Center
Thu 09:13:41 AM 36.0933 -81.5411 226° Southwest 446 513 34,000  Level Atlanta Center
Thu 09:14:41 AM 36.0161 -81.6436 227° Southwest 446 513 34,000  Level Atlanta Center
Thu 09:15:41 AM 35.9286 -81.7564 226° Southwest 452 520 34,000  Level Atlanta Center
Thu 09:16:41 AM 35.8408 -81.8692 226° Southwest 452 520 34,000  Level Atlanta Center
Thu 09:17:41 AM 35.7553 -81.9789 226° Southwest 452 520 34,000  Level Atlanta Center
Thu 09:18:41 AM 35.6672 -82.0908 226° Southwest 457 526 34,000  Level Atlanta Center
Thu 09:19:41 AM 35.5772 -82.2003 225° Southwest 457 526 34,000  Level Atlanta Center
Thu 09:20:41 AM 35.4933 -82.3094 227° Southwest 452 520 34,000  Level Atlanta Center
Thu 09:21:41 AM 35.4050 -82.4233 226° Southwest 457 526 34,000 -150 Level Atlanta Center
Thu 09:22:41 AM 35.3147 -82.5294 224° Southwest 457 526 33,700 -700 Descending Atlanta Center
Thu 09:23:41 AM 35.2219 -82.6353 223° Southwest 457 526 32,600 -900 Descending Atlanta Center
Thu 09:24:41 AM 35.1250 -82.7386 221° Southwest 457 526 31,900 -750 Descending Atlanta Center
Thu 09:25:41 AM 35.0178 -82.8519 221° Southwest 470 541 31,100 -650 Descending Atlanta Center
Thu 09:26:41 AM 34.9433 -82.9339 222° Southwest 470 541 30,600 -600 Descending Atlanta Center
Thu 09:27:41 AM 34.8336 -83.0442 220° Southwest 470 541 29,900 -750 Descending Atlanta Center
Thu 09:28:41 AM 34.7406 -83.1414 221° Southwest 453 521 29,100 -1,350 Descending Atlanta Center
Thu 09:29:41 AM 34.6494 -83.2433 223° Southwest 453 521 27,200 -2,000 Descending Atlanta Center
Thu 09:30:41 AM 34.5625 -83.3400 222° Southwest 434 499 25,100 -2,250 Descending Atlanta Center
Thu 09:31:41 AM 34.4753 -83.4317 221° Southwest 425 489 22,700 -1,850 Descending Atlanta Center
Thu 09:32:41 AM 34.3900 -83.5178 220° Southwest 407 468 21,400 -1,700 Descending Atlanta Center
Thu 09:33:41 AM 34.3047 -83.6114 222° Southwest 391 450 19,300 -2,100 Descending Atlanta Center
Thu 09:34:41 AM 34.2319 -83.6869 221° Southwest 368 423 17,200 -2,100 Descending Atlanta Center
Thu 09:35:41 AM 34.1592 -83.7653 222° Southwest 361 415 15,100 -1,600 Descending Atlanta Center
Thu 09:36:41 AM 34.0883 -83.8406 221° Southwest 354 407 14,000 -913 Descending Atlanta Center
Thu 09:37:13 AM 34.0500 -83.8833 223° Southwest 336 387 13,700 -848 Descending Atlanta TRACON
Thu 09:38:13 AM 33.9833 -83.9500 220° Southwest 325 374 12,700 -800 Descending Atlanta TRACON
Thu 09:39:13 AM 33.9167 -84.0167 220° Southwest 304 350 12,100 -350 Descending Atlanta TRACON
Thu 09:40:13 AM 33.8333 -84.0667 206° Southwest 303 349 12,000 -48 Descending Atlanta TRACON
Thu 09:41:19 AM 33.7500 -84.1167 207° Southwest 307 353 12,000  Level Atlanta TRACON
Thu 09:42:19 AM 33.7333 -84.2167 259° West 296 341 12,000 -300 Level Atlanta TRACON
Thu 09:43:19 AM 33.7333 -84.3000 270° West 251 289 11,400 -1,000 Descending Atlanta TRACON
Thu 09:44:19 AM 33.7333 -84.3833 270° West 253 291 10,000 -1,350 Descending Atlanta TRACON
Thu 09:45:19 AM 33.7333 -84.4667 270° West 241 277 8,700 -1,250 Descending Atlanta TRACON
Thu 09:46:19 AM 33.7333 -84.5500 270° West 219 252 7,500 -1,300 Descending Atlanta TRACON
Thu 09:47:19 AM 33.7333 -84.6167 270° West 217 250 6,100 -1,150 Descending Atlanta TRACON
Thu 09:48:19 AM 33.7167 -84.6667 248° West 221 254 5,200 -991 Descending Atlanta TRACON
Thu 09:49:14 AM 33.6667 -84.6500 164° South 199 229 4,200 -939 Descending Atlanta TRACON
Thu 09:50:14 AM 33.6500 -84.6000 112° Southeast 189 217 3,400 -800 Descending Atlanta TRACON
Thu 09:51:14 AM 33.6500 -84.5333 90° East 187 215 2,600 -857 Descending Atlanta TRACON
Thu 09:52:20 AM 33.6500 -84.4667 90° East 162 186 1,600 -909 Descending Atlanta TRACON

Login

Don't have an account? Register now (free) for customized features, flight alerts, and more!